sensor_id;sensor_type;location;lat;lon;timestamp;temperature;humidity
17815;DHT22;9031;50.974;11.330;2022-10-24T00:01:23;13.90;99.90
17815;DHT22;9031;50.974;11.330;2022-10-24T00:03:49;13.90;99.90
17815;DHT22;9031;50.974;11.330;2022-10-24T00:06:15;13.90;99.90
17815;DHT22;9031;50.974;11.330;2022-10-24T00:08:42;13.90;99.90
17815;DHT22;9031;50.974;11.330;2022-10-24T00:11:14;13.90;99.90
17815;DHT22;9031;50.974;11.330;2022-10-24T00:13:41;13.90;99.90
17815;DHT22;9031;50.974;11.330;2022-10-24T00:16:07;13.90;99.90
17815;DHT22;9031;50.974;11.330;2022-10-24T00:18:33;14.00;99.90
17815;DHT22;9031;50.974;11.330;2022-10-24T00:20:59;13.90;99.90
17815;DHT22;9031;50.974;11.330;2022-10-24T00:23:24;14.00;99.90
17815;DHT22;9031;50.974;11.330;2022-10-24T00:25:50;14.00;99.90
17815;DHT22;9031;50.974;11.330;2022-10-24T00:28:15;14.00;99.90
17815;DHT22;9031;50.974;11.330;2022-10-24T00:30:41;14.00;99.90
17815;DHT22;9031;50.974;11.330;2022-10-24T00:33:06;14.10;99.90
17815;DHT22;9031;50.974;11.330;2022-10-24T00:35:32;14.00;99.90
17815;DHT22;9031;50.974;11.330;2022-10-24T00:37:57;14.00;99.90
17815;DHT22;9031;50.974;11.330;2022-10-24T00:40:23;13.90;99.90
17815;DHT22;9031;50.974;11.330;2022-10-24T00:42:49;13.90;99.90
17815;DHT22;9031;50.974;11.330;2022-10-24T00:47:58;13.90;99.90
17815;DHT22;9031;50.974;11.330;2022-10-24T00:50:24;13.90;99.90
17815;DHT22;9031;50.974;11.330;2022-10-24T00:52:49;13.90;99.90
17815;DHT22;9031;50.974;11.330;2022-10-24T00:55:15;13.90;99.90
17815;DHT22;9031;50.974;11.330;2022-10-24T00:57:50;13.90;99.90
17815;DHT22;9031;50.974;11.330;2022-10-24T01:00:27;13.80;99.90
17815;DHT22;9031;50.974;11.330;2022-10-24T01:02:53;13.80;99.90
17815;DHT22;9031;50.974;11.330;2022-10-24T01:05:22;13.70;99.90
17815;DHT22;9031;50.974;11.330;2022-10-24T01:10:56;13.70;99.90
17815;DHT22;9031;50.974;11.330;2022-10-24T01:16:36;13.60;99.90
17815;DHT22;9031;50.974;11.330;2022-10-24T01:19:19;13.70;99.90
17815;DHT22;9031;50.974;11.330;2022-10-24T01:22:04;14.00;99.90
17815;DHT22;9031;50.974;11.330;2022-10-24T01:24:46;14.20;99.90
17815;DHT22;9031;50.974;11.330;2022-10-24T01:27:55;14.30;99.90
17815;DHT22;9031;50.974;11.330;2022-10-24T01:30:21;14.30;99.90
17815;DHT22;9031;50.974;11.330;2022-10-24T01:32:58;14.40;99.90
17815;DHT22;9031;50.974;11.330;2022-10-24T01:35:43;14.70;99.90
17815;DHT22;9031;50.974;11.330;2022-10-24T01:38:18;14.80;99.90
17815;DHT22;9031;50.974;11.330;2022-10-24T01:40:47;15.00;99.90
17815;DHT22;9031;50.974;11.330;2022-10-24T01:43:18;15.10;99.90
17815;DHT22;9031;50.974;11.330;2022-10-24T01:45:49;15.00;99.90
17815;DHT22;9031;50.974;11.330;2022-10-24T01:48:19;15.10;99.90
17815;DHT22;9031;50.974;11.330;2022-10-24T01:50:48;15.00;99.90
17815;DHT22;9031;50.974;11.330;2022-10-24T01:53:16;15.10;99.90
17815;DHT22;9031;50.974;11.330;2022-10-24T01:55:42;15.10;99.90
17815;DHT22;9031;50.974;11.330;2022-10-24T01:58:09;15.00;99.90
17815;DHT22;9031;50.974;11.330;2022-10-24T02:00:34;15.00;99.90
17815;DHT22;9031;50.974;11.330;2022-10-24T02:03:07;15.10;99.90
17815;DHT22;9031;50.974;11.330;2022-10-24T02:05:41;15.10;99.90
17815;DHT22;9031;50.974;11.330;2022-10-24T02:08:12;15.00;99.90
17815;DHT22;9031;50.974;11.330;2022-10-24T02:10:43;15.10;99.90
17815;DHT22;9031;50.974;11.330;2022-10-24T02:13:14;15.00;99.90
17815;DHT22;9031;50.974;11.330;2022-10-24T02:15:47;15.00;99.90
17815;DHT22;9031;50.974;11.330;2022-10-24T02:18:14;15.00;99.90
17815;DHT22;9031;50.974;11.330;2022-10-24T02:26:05;14.60;99.90
17815;DHT22;9031;50.974;11.330;2022-10-24T02:28:36;14.50;99.90
17815;DHT22;9031;50.974;11.330;2022-10-24T02:31:10;14.70;99.90
17815;DHT22;9031;50.974;11.330;2022-10-24T02:33:39;14.80;99.90
17815;DHT22;9031;50.974;11.330;2022-10-24T02:36:06;14.80;99.90
17815;DHT22;9031;50.974;11.330;2022-10-24T02:38:36;14.80;99.90
17815;DHT22;9031;50.974;11.330;2022-10-24T02:41:06;14.80;99.90
17815;DHT22;9031;50.974;11.330;2022-10-24T02:43:33;14.90;99.90
17815;DHT22;9031;50.974;11.330;2022-10-24T02:45:59;15.00;99.90
17815;DHT22;9031;50.974;11.330;2022-10-24T02:48:33;15.20;99.90
17815;DHT22;9031;50.974;11.330;2022-10-24T02:50:59;15.30;99.90
17815;DHT22;9031;50.974;11.330;2022-10-24T02:53:26;15.40;99.90
17815;DHT22;9031;50.974;11.330;2022-10-24T02:55:52;15.40;99.90
17815;DHT22;9031;50.974;11.330;2022-10-24T02:58:18;15.40;99.90
17815;DHT22;9031;50.974;11.330;2022-10-24T03:00:43;15.40;99.90
17815;DHT22;9031;50.974;11.330;2022-10-24T03:03:09;15.40;99.90
17815;DHT22;9031;50.974;11.330;2022-10-24T03:05:34;15.50;99.90
17815;DHT22;9031;50.974;11.330;2022-10-24T03:08:00;15.40;99.90
17815;DHT22;9031;50.974;11.330;2022-10-24T03:10:25;15.40;99.90
17815;DHT22;9031;50.974;11.330;2022-10-24T03:12:51;15.40;99.90
17815;DHT22;9031;50.974;11.330;2022-10-24T03:15:17;15.40;99.90
17815;DHT22;9031;50.974;11.330;2022-10-24T03:17:42;15.40;99.90
17815;DHT22;9031;50.974;11.330;2022-10-24T03:20:08;15.40;99.90
17815;DHT22;9031;50.974;11.330;2022-10-24T03:22:34;15.40;99.90
17815;DHT22;9031;50.974;11.330;2022-10-24T03:25:00;15.40;99.90
17815;DHT22;9031;50.974;11.330;2022-10-24T03:27:28;15.40;99.90
17815;DHT22;9031;50.974;11.330;2022-10-24T03:29:54;15.40;99.90
17815;DHT22;9031;50.974;11.330;2022-10-24T03:32:19;15.30;99.90
17815;DHT22;9031;50.974;11.330;2022-10-24T03:34:45;15.30;99.90
17815;DHT22;9031;50.974;11.330;2022-10-24T03:37:11;15.30;99.90
17815;DHT22;9031;50.974;11.330;2022-10-24T03:39:36;15.30;99.90
17815;DHT22;9031;50.974;11.330;2022-10-24T03:42:02;15.30;99.90
17815;DHT22;9031;50.974;11.330;2022-10-24T03:44:28;15.30;99.90
17815;DHT22;9031;50.974;11.330;2022-10-24T03:46:53;15.40;99.90
17815;DHT22;9031;50.974;11.330;2022-10-24T03:49:19;15.40;99.90
17815;DHT22;9031;50.974;11.330;2022-10-24T03:51:44;15.40;99.90
17815;DHT22;9031;50.974;11.330;2022-10-24T03:54:10;15.40;99.90
17815;DHT22;9031;50.974;11.330;2022-10-24T03:56:36;15.40;99.90
17815;DHT22;9031;50.974;11.330;2022-10-24T03:59:02;15.40;99.90
17815;DHT22;9031;50.974;11.330;2022-10-24T04:01:27;15.40;99.90
17815;DHT22;9031;50.974;11.330;2022-10-24T04:03:53;15.30;99.90
17815;DHT22;9031;50.974;11.330;2022-10-24T04:06:18;15.40;99.90
17815;DHT22;9031;50.974;11.330;2022-10-24T04:08:44;15.40;99.90
17815;DHT22;9031;50.974;11.330;2022-10-24T04:11:09;15.30;99.90
17815;DHT22;9031;50.974;11.330;2022-10-24T04:13:36;15.30;99.90
17815;DHT22;9031;50.974;11.330;2022-10-24T04:16:01;15.30;99.90
17815;DHT22;9031;50.974;11.330;2022-10-24T04:18:27;15.30;99.90
17815;DHT22;9031;50.974;11.330;2022-10-24T04:20:53;15.30;99.90
17815;DHT22;9031;50.974;11.330;2022-10-24T04:23:18;15.30;99.90
17815;DHT22;9031;50.974;11.330;2022-10-24T04:25:44;15.30;99.90
17815;DHT22;9031;50.974;11.330;2022-10-24T04:28:10;15.30;99.90
17815;DHT22;9031;50.974;11.330;2022-10-24T04:30:36;15.30;99.90
17815;DHT22;9031;50.974;11.330;2022-10-24T04:33:02;15.30;99.90
17815;DHT22;9031;50.974;11.330;2022-10-24T04:35:27;15.30;99.90
17815;DHT22;9031;50.974;11.330;2022-10-24T04:37:53;15.30;99.90
17815;DHT22;9031;50.974;11.330;2022-10-24T04:40:18;15.40;99.90
17815;DHT22;9031;50.974;11.330;2022-10-24T04:42:44;15.40;99.90
17815;DHT22;9031;50.974;11.330;2022-10-24T04:45:09;15.40;99.90
17815;DHT22;9031;50.974;11.330;2022-10-24T04:47:35;15.40;99.90
17815;DHT22;9031;50.974;11.330;2022-10-24T04:50:01;15.40;99.90
17815;DHT22;9031;50.974;11.330;2022-10-24T04:52:26;15.40;99.90
17815;DHT22;9031;50.974;11.330;2022-10-24T04:54:52;15.40;99.90
17815;DHT22;9031;50.974;11.330;2022-10-24T04:57:17;15.50;99.90
17815;DHT22;9031;50.974;11.330;2022-10-24T04:59:43;15.50;99.90
17815;DHT22;9031;50.974;11.330;2022-10-24T05:02:09;15.50;99.90
17815;DHT22;9031;50.974;11.330;2022-10-24T05:04:34;15.50;99.90
17815;DHT22;9031;50.974;11.330;2022-10-24T05:06:59;15.50;99.90
17815;DHT22;9031;50.974;11.330;2022-10-24T05:09:25;15.50;99.90
17815;DHT22;9031;50.974;11.330;2022-10-24T05:11:53;15.50;99.90
17815;DHT22;9031;50.974;11.330;2022-10-24T05:14:19;15.50;99.90
17815;DHT22;9031;50.974;11.330;2022-10-24T05:16:44;15.40;99.90
17815;DHT22;9031;50.974;11.330;2022-10-24T05:19:13;15.40;99.90
17815;DHT22;9031;50.974;11.330;2022-10-24T05:21:38;15.40;99.90
17815;DHT22;9031;50.974;11.330;2022-10-24T05:24:04;15.40;99.90
17815;DHT22;9031;50.974;11.330;2022-10-24T05:26:29;15.40;99.90
17815;DHT22;9031;50.974;11.330;2022-10-24T05:28:55;15.40;99.90
17815;DHT22;9031;50.974;11.330;2022-10-24T05:31:20;15.40;99.90
17815;DHT22;9031;50.974;11.330;2022-10-24T05:33:46;15.40;99.90
17815;DHT22;9031;50.974;11.330;2022-10-24T05:36:11;15.40;99.90
17815;DHT22;9031;50.974;11.330;2022-10-24T05:38:37;15.40;99.90
17815;DHT22;9031;50.974;11.330;2022-10-24T05:41:02;15.30;99.90
17815;DHT22;9031;50.974;11.330;2022-10-24T05:43:28;15.30;99.90
17815;DHT22;9031;50.974;11.330;2022-10-24T05:45:53;15.40;99.90
17815;DHT22;9031;50.974;11.330;2022-10-24T05:48:19;15.40;99.90
17815;DHT22;9031;50.974;11.330;2022-10-24T05:50:44;15.40;99.90
17815;DHT22;9031;50.974;11.330;2022-10-24T05:53:10;15.40;99.90
17815;DHT22;9031;50.974;11.330;2022-10-24T05:55:37;15.40;99.90
17815;DHT22;9031;50.974;11.330;2022-10-24T05:58:02;15.40;99.90
17815;DHT22;9031;50.974;11.330;2022-10-24T06:00:28;15.40;99.90
17815;DHT22;9031;50.974;11.330;2022-10-24T06:02:53;15.40;99.90
17815;DHT22;9031;50.974;11.330;2022-10-24T06:05:19;15.40;99.90
17815;DHT22;9031;50.974;11.330;2022-10-24T06:07:45;15.40;99.90
17815;DHT22;9031;50.974;11.330;2022-10-24T06:10:11;15.50;99.90
17815;DHT22;9031;50.974;11.330;2022-10-24T06:12:37;15.50;99.90
17815;DHT22;9031;50.974;11.330;2022-10-24T06:15:05;15.60;99.90
17815;DHT22;9031;50.974;11.330;2022-10-24T06:17:31;15.70;99.90
17815;DHT22;9031;50.974;11.330;2022-10-24T06:19:57;15.70;99.90
17815;DHT22;9031;50.974;11.330;2022-10-24T06:22:22;15.70;99.90
17815;DHT22;9031;50.974;11.330;2022-10-24T06:24:49;15.70;99.90
17815;DHT22;9031;50.974;11.330;2022-10-24T06:27:15;15.70;99.90
17815;DHT22;9031;50.974;11.330;2022-10-24T06:29:41;15.70;99.90
17815;DHT22;9031;50.974;11.330;2022-10-24T06:32:06;15.70;99.90
17815;DHT22;9031;50.974;11.330;2022-10-24T06:34:32;15.70;99.90
17815;DHT22;9031;50.974;11.330;2022-10-24T06:36:57;15.70;99.90
17815;DHT22;9031;50.974;11.330;2022-10-24T06:39:23;15.80;99.90
17815;DHT22;9031;50.974;11.330;2022-10-24T06:41:48;15.80;99.90
17815;DHT22;9031;50.974;11.330;2022-10-24T06:44:14;15.80;99.90
17815;DHT22;9031;50.974;11.330;2022-10-24T06:46:39;15.80;99.90
17815;DHT22;9031;50.974;11.330;2022-10-24T06:49:05;15.90;99.90
17815;DHT22;9031;50.974;11.330;2022-10-24T06:51:31;15.90;99.90
17815;DHT22;9031;50.974;11.330;2022-10-24T06:53:57;15.90;99.90
17815;DHT22;9031;50.974;11.330;2022-10-24T06:56:23;15.90;99.90
17815;DHT22;9031;50.974;11.330;2022-10-24T06:58:48;15.90;99.90
17815;DHT22;9031;50.974;11.330;2022-10-24T07:01:17;15.90;99.90
17815;DHT22;9031;50.974;11.330;2022-10-24T07:03:42;15.90;99.90
17815;DHT22;9031;50.974;11.330;2022-10-24T07:06:30;16.00;99.90
17815;DHT22;9031;50.974;11.330;2022-10-24T07:08:57;16.10;99.90
17815;DHT22;9031;50.974;11.330;2022-10-24T07:11:24;16.20;99.90
17815;DHT22;9031;50.974;11.330;2022-10-24T07:13:49;16.20;99.90
17815;DHT22;9031;50.974;11.330;2022-10-24T07:16:15;16.20;99.90
17815;DHT22;9031;50.974;11.330;2022-10-24T07:18:41;16.30;99.90
17815;DHT22;9031;50.974;11.330;2022-10-24T07:21:19;16.30;99.90
17815;DHT22;9031;50.974;11.330;2022-10-24T07:23:44;16.30;99.90
17815;DHT22;9031;50.974;11.330;2022-10-24T07:26:12;16.40;99.90
17815;DHT22;9031;50.974;11.330;2022-10-24T07:28:39;16.40;99.90
17815;DHT22;9031;50.974;11.330;2022-10-24T07:31:05;16.50;99.90
17815;DHT22;9031;50.974;11.330;2022-10-24T07:33:31;16.50;99.90
17815;DHT22;9031;50.974;11.330;2022-10-24T07:35:57;16.60;99.90
17815;DHT22;9031;50.974;11.330;2022-10-24T07:38:23;16.70;99.90
17815;DHT22;9031;50.974;11.330;2022-10-24T07:40:49;16.70;99.90
17815;DHT22;9031;50.974;11.330;2022-10-24T07:43:16;16.70;99.90
17815;DHT22;9031;50.974;11.330;2022-10-24T07:45:42;16.70;99.90
17815;DHT22;9031;50.974;11.330;2022-10-24T07:48:07;16.80;99.90
17815;DHT22;9031;50.974;11.330;2022-10-24T07:50:34;16.80;99.90
17815;DHT22;9031;50.974;11.330;2022-10-24T07:52:59;16.80;99.90
17815;DHT22;9031;50.974;11.330;2022-10-24T07:55:25;16.80;99.90
17815;DHT22;9031;50.974;11.330;2022-10-24T07:57:51;16.90;99.90
17815;DHT22;9031;50.974;11.330;2022-10-24T08:00:16;16.90;99.90
17815;DHT22;9031;50.974;11.330;2022-10-24T08:02:42;16.90;99.90
17815;DHT22;9031;50.974;11.330;2022-10-24T08:05:09;17.00;99.90
17815;DHT22;9031;50.974;11.330;2022-10-24T08:07:36;17.10;99.90
17815;DHT22;9031;50.974;11.330;2022-10-24T08:10:03;17.10;99.90
17815;DHT22;9031;50.974;11.330;2022-10-24T08:12:29;17.10;99.90
17815;DHT22;9031;50.974;11.330;2022-10-24T08:14:55;17.20;99.90
17815;DHT22;9031;50.974;11.330;2022-10-24T08:17:20;17.20;99.90
17815;DHT22;9031;50.974;11.330;2022-10-24T08:19:47;17.20;99.90
17815;DHT22;9031;50.974;11.330;2022-10-24T08:22:13;17.20;99.90
17815;DHT22;9031;50.974;11.330;2022-10-24T08:24:44;17.30;99.90
17815;DHT22;9031;50.974;11.330;2022-10-24T08:27:10;17.30;99.90
17815;DHT22;9031;50.974;11.330;2022-10-24T08:29:36;17.30;99.90
17815;DHT22;9031;50.974;11.330;2022-10-24T08:32:02;17.30;99.90
17815;DHT22;9031;50.974;11.330;2022-10-24T08:34:28;17.30;99.90
17815;DHT22;9031;50.974;11.330;2022-10-24T08:36:53;17.30;99.90
17815;DHT22;9031;50.974;11.330;2022-10-24T08:39:19;17.30;99.90
17815;DHT22;9031;50.974;11.330;2022-10-24T08:41:51;17.40;99.90
17815;DHT22;9031;50.974;11.330;2022-10-24T08:44:30;17.50;99.90
17815;DHT22;9031;50.974;11.330;2022-10-24T08:49:47;17.40;99.90
17815;DHT22;9031;50.974;11.330;2022-10-24T08:52:32;17.50;99.90
17815;DHT22;9031;50.974;11.330;2022-10-24T08:55:14;17.50;99.90
17815;DHT22;9031;50.974;11.330;2022-10-24T08:57:44;17.60;99.90
17815;DHT22;9031;50.974;11.330;2022-10-24T09:00:23;17.70;99.90
17815;DHT22;9031;50.974;11.330;2022-10-24T09:03:00;17.70;99.90
17815;DHT22;9031;50.974;11.330;2022-10-24T09:05:32;17.70;99.90
17815;DHT22;9031;50.974;11.330;2022-10-24T09:08:03;17.60;99.90
17815;DHT22;9031;50.974;11.330;2022-10-24T09:10:47;17.70;99.90
17815;DHT22;9031;50.974;11.330;2022-10-24T09:13:14;17.80;99.90
17815;DHT22;9031;50.974;11.330;2022-10-24T09:15:42;17.80;99.90
17815;DHT22;9031;50.974;11.330;2022-10-24T09:18:17;17.80;99.90
17815;DHT22;9031;50.974;11.330;2022-10-24T09:20:44;17.90;99.90
17815;DHT22;9031;50.974;11.330;2022-10-24T09:23:11;17.90;99.90
17815;DHT22;9031;50.974;11.330;2022-10-24T09:25:42;18.00;99.90
17815;DHT22;9031;50.974;11.330;2022-10-24T09:28:10;17.90;99.90
17815;DHT22;9031;50.974;11.330;2022-10-24T09:30:36;18.00;99.90
17815;DHT22;9031;50.974;11.330;2022-10-24T09:33:30;18.00;99.90
17815;DHT22;9031;50.974;11.330;2022-10-24T09:36:00;17.80;99.90
17815;DHT22;9031;50.974;11.330;2022-10-24T09:38:34;17.70;99.90
17815;DHT22;9031;50.974;11.330;2022-10-24T09:41:05;17.70;99.90
17815;DHT22;9031;50.974;11.330;2022-10-24T09:43:39;17.70;99.90
17815;DHT22;9031;50.974;11.330;2022-10-24T09:46:21;17.70;99.90
17815;DHT22;9031;50.974;11.330;2022-10-24T09:48:58;17.80;99.90
17815;DHT22;9031;50.974;11.330;2022-10-24T09:51:36;17.80;99.90
17815;DHT22;9031;50.974;11.330;2022-10-24T09:54:09;17.80;99.90
17815;DHT22;9031;50.974;11.330;2022-10-24T10:04:36;17.80;99.90
17815;DHT22;9031;50.974;11.330;2022-10-24T10:07:08;17.90;99.90
17815;DHT22;9031;50.974;11.330;2022-10-24T10:09:35;17.90;99.90
17815;DHT22;9031;50.974;11.330;2022-10-24T10:12:25;18.00;99.90
17815;DHT22;9031;50.974;11.330;2022-10-24T10:14:51;17.90;99.90
17815;DHT22;9031;50.974;11.330;2022-10-24T10:17:22;18.00;99.90
17815;DHT22;9031;50.974;11.330;2022-10-24T10:19:49;18.10;99.90
17815;DHT22;9031;50.974;11.330;2022-10-24T10:22:23;17.90;99.90
17815;DHT22;9031;50.974;11.330;2022-10-24T10:24:49;18.00;99.90
17815;DHT22;9031;50.974;11.330;2022-10-24T10:27:38;18.00;99.90
17815;DHT22;9031;50.974;11.330;2022-10-24T10:30:14;18.10;99.90
17815;DHT22;9031;50.974;11.330;2022-10-24T10:32:56;18.00;99.90
17815;DHT22;9031;50.974;11.330;2022-10-24T10:35:41;18.00;99.90
17815;DHT22;9031;50.974;11.330;2022-10-24T10:41:02;18.00;99.90
17815;DHT22;9031;50.974;11.330;2022-10-24T10:43:38;18.00;99.90
17815;DHT22;9031;50.974;11.330;2022-10-24T10:46:19;18.10;99.90
17815;DHT22;9031;50.974;11.330;2022-10-24T10:49:15;18.10;99.90
17815;DHT22;9031;50.974;11.330;2022-10-24T10:52:06;18.10;99.90
17815;DHT22;9031;50.974;11.330;2022-10-24T10:54:56;18.00;99.90
17815;DHT22;9031;50.974;11.330;2022-10-24T10:57:29;18.00;99.90
17815;DHT22;9031;50.974;11.330;2022-10-24T11:00:08;18.10;99.90
17815;DHT22;9031;50.974;11.330;2022-10-24T11:08:13;18.40;99.90
17815;DHT22;9031;50.974;11.330;2022-10-24T11:10:45;18.60;99.90
17815;DHT22;9031;50.974;11.330;2022-10-24T11:13:41;18.80;99.90
17815;DHT22;9031;50.974;11.330;2022-10-24T11:16:09;20.10;99.90
17815;DHT22;9031;50.974;11.330;2022-10-24T11:18:39;21.80;99.90
17815;DHT22;9031;50.974;11.330;2022-10-24T11:21:08;23.40;99.90
17815;DHT22;9031;50.974;11.330;2022-10-24T11:24:03;24.10;99.90
17815;DHT22;9031;50.974;11.330;2022-10-24T11:29:33;24.30;99.90
17815;DHT22;9031;50.974;11.330;2022-10-24T11:37:38;23.60;99.90
17815;DHT22;9031;50.974;11.330;2022-10-24T11:40:14;23.40;99.90
17815;DHT22;9031;50.974;11.330;2022-10-24T11:45:31;22.70;99.90
17815;DHT22;9031;50.974;11.330;2022-10-24T11:48:18;22.60;99.90
17815;DHT22;9031;50.974;11.330;2022-10-24T11:56:18;21.80;99.90
17815;DHT22;9031;50.974;11.330;2022-10-24T11:59:04;22.00;99.90
17815;DHT22;9031;50.974;11.330;2022-10-24T12:12:43;20.40;99.90
17815;DHT22;9031;50.974;11.330;2022-10-24T12:18:05;20.00;99.90
17815;DHT22;9031;50.974;11.330;2022-10-24T12:20:35;20.00;99.90
17815;DHT22;9031;50.974;11.330;2022-10-24T12:23:02;19.80;99.90
17815;DHT22;9031;50.974;11.330;2022-10-24T12:25:35;19.40;99.90
17815;DHT22;9031;50.974;11.330;2022-10-24T12:28:18;19.20;99.90
17815;DHT22;9031;50.974;11.330;2022-10-24T12:33:40;19.10;99.90
17815;DHT22;9031;50.974;11.330;2022-10-24T12:36:06;19.10;99.90
17815;DHT22;9031;50.974;11.330;2022-10-24T12:44:35;18.80;99.90
17815;DHT22;9031;50.974;11.330;2022-10-24T12:49:51;18.50;99.90
17815;DHT22;9031;50.974;11.330;2022-10-24T12:54:54;18.70;99.90
17815;DHT22;9031;50.974;11.330;2022-10-24T12:57:23;18.70;99.90
17815;DHT22;9031;50.974;11.330;2022-10-24T12:59:52;18.80;99.90
17815;DHT22;9031;50.974;11.330;2022-10-24T13:07:45;18.70;99.90
17815;DHT22;9031;50.974;11.330;2022-10-24T13:18:45;19.40;99.90
17815;DHT22;9031;50.974;11.330;2022-10-24T13:21:26;19.50;99.90
17815;DHT22;9031;50.974;11.330;2022-10-24T13:31:53;19.60;99.90
17815;DHT22;9031;50.974;11.330;2022-10-24T13:34:22;19.70;99.90
17815;DHT22;9031;50.974;11.330;2022-10-24T13:37:13;19.70;99.90
17815;DHT22;9031;50.974;11.330;2022-10-24T13:39:45;19.60;99.90
17815;DHT22;9031;50.974;11.330;2022-10-24T13:44:50;19.40;99.90
17815;DHT22;9031;50.974;11.330;2022-10-24T13:47:21;19.30;99.90
17815;DHT22;9031;50.974;11.330;2022-10-24T13:58:07;19.60;99.90
17815;DHT22;9031;50.974;11.330;2022-10-24T14:00:41;19.80;99.90
17815;DHT22;9031;50.974;11.330;2022-10-24T14:03:16;19.80;99.90
17815;DHT22;9031;50.974;11.330;2022-10-24T14:05:56;20.00;99.90
17815;DHT22;9031;50.974;11.330;2022-10-24T14:08:32;20.20;99.90
17815;DHT22;9031;50.974;11.330;2022-10-24T14:11:04;20.00;99.90
17815;DHT22;9031;50.974;11.330;2022-10-24T14:13:33;20.10;99.90
17815;DHT22;9031;50.974;11.330;2022-10-24T14:16:02;20.10;99.90
17815;DHT22;9031;50.974;11.330;2022-10-24T14:18:28;20.00;99.90
17815;DHT22;9031;50.974;11.330;2022-10-24T14:20:57;19.80;99.90
17815;DHT22;9031;50.974;11.330;2022-10-24T14:25:59;19.60;99.90
17815;DHT22;9031;50.974;11.330;2022-10-24T14:28:31;19.60;99.90
17815;DHT22;9031;50.974;11.330;2022-10-24T14:31:04;19.40;99.90
17815;DHT22;9031;50.974;11.330;2022-10-24T14:33:40;19.40;99.90
17815;DHT22;9031;50.974;11.330;2022-10-24T14:36:07;19.50;99.90
17815;DHT22;9031;50.974;11.330;2022-10-24T14:38:33;19.30;99.90
17815;DHT22;9031;50.974;11.330;2022-10-24T14:40:59;19.10;99.90
17815;DHT22;9031;50.974;11.330;2022-10-24T14:43:27;18.90;99.90
17815;DHT22;9031;50.974;11.330;2022-10-24T14:48:31;18.90;99.90
17815;DHT22;9031;50.974;11.330;2022-10-24T14:51:04;18.90;99.90
17815;DHT22;9031;50.974;11.330;2022-10-24T14:53:33;18.80;99.90
17815;DHT22;9031;50.974;11.330;2022-10-24T14:56:00;18.80;99.90
17815;DHT22;9031;50.974;11.330;2022-10-24T14:58:28;18.70;99.90
17815;DHT22;9031;50.974;11.330;2022-10-24T15:00:55;18.60;99.90
17815;DHT22;9031;50.974;11.330;2022-10-24T15:03:26;18.50;99.90
17815;DHT22;9031;50.974;11.330;2022-10-24T15:06:06;18.40;99.90
17815;DHT22;9031;50.974;11.330;2022-10-24T15:08:38;18.20;99.90
17815;DHT22;9031;50.974;11.330;2022-10-24T15:11:05;18.20;99.90
17815;DHT22;9031;50.974;11.330;2022-10-24T15:13:32;18.10;99.90
17815;DHT22;9031;50.974;11.330;2022-10-24T15:15:59;18.10;99.90
17815;DHT22;9031;50.974;11.330;2022-10-24T15:18:30;18.10;99.90
17815;DHT22;9031;50.974;11.330;2022-10-24T15:21:05;18.00;99.90
17815;DHT22;9031;50.974;11.330;2022-10-24T15:23:33;18.00;99.90
17815;DHT22;9031;50.974;11.330;2022-10-24T15:26:23;18.00;99.90
17815;DHT22;9031;50.974;11.330;2022-10-24T15:31:19;17.90;99.90
17815;DHT22;9031;50.974;11.330;2022-10-24T15:33:45;17.80;99.90
17815;DHT22;9031;50.974;11.330;2022-10-24T15:36:21;17.80;99.90
17815;DHT22;9031;50.974;11.330;2022-10-24T15:38:47;17.70;99.90
17815;DHT22;9031;50.974;11.330;2022-10-24T15:41:14;17.70;99.90
17815;DHT22;9031;50.974;11.330;2022-10-24T15:43:40;17.70;99.90
17815;DHT22;9031;50.974;11.330;2022-10-24T15:46:05;17.60;99.90
17815;DHT22;9031;50.974;11.330;2022-10-24T15:48:31;17.50;99.90
17815;DHT22;9031;50.974;11.330;2022-10-24T15:50:57;17.50;99.90
17815;DHT22;9031;50.974;11.330;2022-10-24T15:53:22;17.40;99.90
17815;DHT22;9031;50.974;11.330;2022-10-24T15:55:48;17.40;99.90
17815;DHT22;9031;50.974;11.330;2022-10-24T15:58:15;17.40;99.90
17815;DHT22;9031;50.974;11.330;2022-10-24T16:00:41;17.30;99.90
17815;DHT22;9031;50.974;11.330;2022-10-24T16:03:12;17.30;99.90
17815;DHT22;9031;50.974;11.330;2022-10-24T16:05:40;17.30;99.90
17815;DHT22;9031;50.974;11.330;2022-10-24T16:08:11;17.20;99.90
17815;DHT22;9031;50.974;11.330;2022-10-24T16:10:37;17.20;99.90
17815;DHT22;9031;50.974;11.330;2022-10-24T16:13:02;17.20;99.90
17815;DHT22;9031;50.974;11.330;2022-10-24T16:15:32;17.20;99.90
17815;DHT22;9031;50.974;11.330;2022-10-24T16:17:59;17.20;99.90
17815;DHT22;9031;50.974;11.330;2022-10-24T16:20:24;17.10;99.90
17815;DHT22;9031;50.974;11.330;2022-10-24T16:22:50;17.10;99.90
17815;DHT22;9031;50.974;11.330;2022-10-24T16:25:23;17.10;99.90
17815;DHT22;9031;50.974;11.330;2022-10-24T16:27:49;17.10;99.90
17815;DHT22;9031;50.974;11.330;2022-10-24T16:30:18;17.10;99.90
17815;DHT22;9031;50.974;11.330;2022-10-24T16:32:44;17.10;99.90
17815;DHT22;9031;50.974;11.330;2022-10-24T16:35:16;17.00;99.90
17815;DHT22;9031;50.974;11.330;2022-10-24T16:37:41;17.00;99.90
17815;DHT22;9031;50.974;11.330;2022-10-24T16:40:07;17.10;99.90
17815;DHT22;9031;50.974;11.330;2022-10-24T16:42:33;17.10;99.90
17815;DHT22;9031;50.974;11.330;2022-10-24T16:44:58;17.00;99.90
17815;DHT22;9031;50.974;11.330;2022-10-24T16:47:24;17.00;99.90
17815;DHT22;9031;50.974;11.330;2022-10-24T16:49:54;17.00;99.90
17815;DHT22;9031;50.974;11.330;2022-10-24T16:52:20;17.00;99.90
17815;DHT22;9031;50.974;11.330;2022-10-24T16:54:46;16.90;99.90
17815;DHT22;9031;50.974;11.330;2022-10-24T16:57:11;16.90;99.90
17815;DHT22;9031;50.974;11.330;2022-10-24T16:59:36;16.90;99.90
17815;DHT22;9031;50.974;11.330;2022-10-24T17:02:02;16.80;99.90
17815;DHT22;9031;50.974;11.330;2022-10-24T17:04:27;16.80;99.90
17815;DHT22;9031;50.974;11.330;2022-10-24T17:06:53;16.80;99.90
17815;DHT22;9031;50.974;11.330;2022-10-24T17:09:19;16.80;99.90
17815;DHT22;9031;50.974;11.330;2022-10-24T17:11:44;16.80;99.90
17815;DHT22;9031;50.974;11.330;2022-10-24T17:14:10;16.80;99.90
17815;DHT22;9031;50.974;11.330;2022-10-24T17:16:38;16.80;99.90
17815;DHT22;9031;50.974;11.330;2022-10-24T17:19:04;16.70;99.90
17815;DHT22;9031;50.974;11.330;2022-10-24T17:21:30;16.80;99.90
17815;DHT22;9031;50.974;11.330;2022-10-24T17:23:56;16.80;99.90
17815;DHT22;9031;50.974;11.330;2022-10-24T17:26:21;16.80;99.90
17815;DHT22;9031;50.974;11.330;2022-10-24T17:28:47;16.70;99.90
17815;DHT22;9031;50.974;11.330;2022-10-24T17:31:13;16.80;99.90
17815;DHT22;9031;50.974;11.330;2022-10-24T17:33:40;16.70;99.90
17815;DHT22;9031;50.974;11.330;2022-10-24T17:36:15;16.70;99.90
17815;DHT22;9031;50.974;11.330;2022-10-24T17:39:05;16.60;99.90
17815;DHT22;9031;50.974;11.330;2022-10-24T17:41:35;16.60;99.90